sensor_id;sensor_type;location;lat;lon;timestamp;P1;durP1;ratioP1;P2;durP2;ratioP2
2748;SDS011;1382;52.142;11.618;2022-10-16T00:01:35;1.43;;;0.97;;
2748;SDS011;1382;52.142;11.618;2022-10-16T00:04:02;0.90;;;0.80;;
2748;SDS011;1382;52.142;11.618;2022-10-16T00:06:30;1.47;;;1.37;;
2748;SDS011;1382;52.142;11.618;2022-10-16T00:08:57;1.10;;;1.10;;
2748;SDS011;1382;52.142;11.618;2022-10-16T00:11:25;2.27;;;1.50;;
2748;SDS011;1382;52.142;11.618;2022-10-16T00:13:55;1.20;;;1.10;;
2748;SDS011;1382;52.142;11.618;2022-10-16T00:16:23;1.20;;;1.10;;
2748;SDS011;1382;52.142;11.618;2022-10-16T00:18:51;1.47;;;1.37;;
2748;SDS011;1382;52.142;11.618;2022-10-16T00:21:19;2.10;;;1.90;;
2748;SDS011;1382;52.142;11.618;2022-10-16T00:23:49;1.30;;;1.20;;
2748;SDS011;1382;52.142;11.618;2022-10-16T00:26:17;2.30;;;1.60;;
2748;SDS011;1382;52.142;11.618;2022-10-16T00:28:45;2.27;;;2.07;;
2748;SDS011;1382;52.142;11.618;2022-10-16T00:31:12;2.07;;;1.87;;
2748;SDS011;1382;52.142;11.618;2022-10-16T00:33:39;2.10;;;1.90;;
2748;SDS011;1382;52.142;11.618;2022-10-16T00:36:10;2.40;;;1.90;;
2748;SDS011;1382;52.142;11.618;2022-10-16T00:38:38;3.37;;;1.77;;
2748;SDS011;1382;52.142;11.618;2022-10-16T00:41:05;2.00;;;1.90;;
2748;SDS011;1382;52.142;11.618;2022-10-16T00:43:34;2.17;;;1.43;;
2748;SDS011;1382;52.142;11.618;2022-10-16T00:46:04;1.50;;;1.40;;
2748;SDS011;1382;52.142;11.618;2022-10-16T00:48:36;1.70;;;1.60;;
2748;SDS011;1382;52.142;11.618;2022-10-16T00:51:02;4.20;;;1.47;;
2748;SDS011;1382;52.142;11.618;2022-10-16T00:53:33;1.47;;;1.37;;
2748;SDS011;1382;52.142;11.618;2022-10-16T00:56:00;2.20;;;2.00;;
2748;SDS011;1382;52.142;11.618;2022-10-16T00:58:28;2.50;;;1.87;;
2748;SDS011;1382;52.142;11.618;2022-10-16T01:00:55;1.63;;;1.53;;
2748;SDS011;1382;52.142;11.618;2022-10-16T01:03:23;4.00;;;1.83;;
2748;SDS011;1382;52.142;11.618;2022-10-16T01:05:59;2.10;;;1.90;;
2748;SDS011;1382;52.142;11.618;2022-10-16T01:08:39;1.70;;;1.60;;
2748;SDS011;1382;52.142;11.618;2022-10-16T01:11:17;1.67;;;1.57;;
2748;SDS011;1382;52.142;11.618;2022-10-16T01:13:50;1.73;;;1.63;;
2748;SDS011;1382;52.142;11.618;2022-10-16T01:16:22;2.00;;;1.80;;
2748;SDS011;1382;52.142;11.618;2022-10-16T01:18:57;3.37;;;1.60;;
2748;SDS011;1382;52.142;11.618;2022-10-16T01:21:31;1.80;;;1.70;;
2748;SDS011;1382;52.142;11.618;2022-10-16T01:24:03;2.67;;;2.00;;
2748;SDS011;1382;52.142;11.618;2022-10-16T01:26:42;1.87;;;1.70;;
2748;SDS011;1382;52.142;11.618;2022-10-16T01:29:22;1.57;;;1.17;;
2748;SDS011;1382;52.142;11.618;2022-10-16T01:31:56;2.30;;;1.80;;
2748;SDS011;1382;52.142;11.618;2022-10-16T01:34:28;2.63;;;1.50;;
2748;SDS011;1382;52.142;11.618;2022-10-16T01:37:01;1.13;;;1.03;;
2748;SDS011;1382;52.142;11.618;2022-10-16T01:39:32;1.37;;;1.27;;
2748;SDS011;1382;52.142;11.618;2022-10-16T01:42:03;1.27;;;1.17;;
2748;SDS011;1382;52.142;11.618;2022-10-16T01:44:35;1.50;;;1.40;;
2748;SDS011;1382;52.142;11.618;2022-10-16T01:47:05;1.33;;;1.23;;
2748;SDS011;1382;52.142;11.618;2022-10-16T01:49:34;2.80;;;1.10;;
2748;SDS011;1382;52.142;11.618;2022-10-16T01:52:04;1.50;;;1.40;;
2748;SDS011;1382;52.142;11.618;2022-10-16T01:54:34;1.40;;;1.20;;
2748;SDS011;1382;52.142;11.618;2022-10-16T01:57:03;1.60;;;1.40;;
2748;SDS011;1382;52.142;11.618;2022-10-16T01:59:33;3.27;;;1.63;;
2748;SDS011;1382;52.142;11.618;2022-10-16T02:02:08;0.97;;;0.87;;
2748;SDS011;1382;52.142;11.618;2022-10-16T02:04:37;1.50;;;1.40;;
2748;SDS011;1382;52.142;11.618;2022-10-16T02:07:06;1.40;;;1.30;;
2748;SDS011;1382;52.142;11.618;2022-10-16T02:09:33;2.10;;;1.10;;
2748;SDS011;1382;52.142;11.618;2022-10-16T02:12:03;1.43;;;1.33;;
2748;SDS011;1382;52.142;11.618;2022-10-16T02:14:36;1.23;;;1.13;;
2748;SDS011;1382;52.142;11.618;2022-10-16T02:17:09;1.73;;;0.80;;
2748;SDS011;1382;52.142;11.618;2022-10-16T02:19:37;1.40;;;1.30;;
2748;SDS011;1382;52.142;11.618;2022-10-16T02:22:10;2.33;;;1.20;;
2748;SDS011;1382;52.142;11.618;2022-10-16T02:24:46;1.40;;;1.27;;
2748;SDS011;1382;52.142;11.618;2022-10-16T02:27:19;1.27;;;1.10;;
2748;SDS011;1382;52.142;11.618;2022-10-16T02:29:55;1.23;;;1.13;;
2748;SDS011;1382;52.142;11.618;2022-10-16T02:32:29;2.50;;;1.60;;
2748;SDS011;1382;52.142;11.618;2022-10-16T02:34:58;2.90;;;1.63;;
2748;SDS011;1382;52.142;11.618;2022-10-16T02:37:26;2.47;;;1.50;;
2748;SDS011;1382;52.142;11.618;2022-10-16T02:39:55;3.37;;;2.10;;
2748;SDS011;1382;52.142;11.618;2022-10-16T02:42:27;2.17;;;1.60;;
2748;SDS011;1382;52.142;11.618;2022-10-16T02:44:56;2.17;;;1.80;;
2748;SDS011;1382;52.142;11.618;2022-10-16T02:47:23;3.23;;;2.63;;
2748;SDS011;1382;52.142;11.618;2022-10-16T02:49:49;4.97;;;3.17;;
2748;SDS011;1382;52.142;11.618;2022-10-16T02:52:16;6.50;;;3.00;;
2748;SDS011;1382;52.142;11.618;2022-10-16T02:54:43;3.53;;;2.80;;
2748;SDS011;1382;52.142;11.618;2022-10-16T02:57:10;3.67;;;2.70;;
2748;SDS011;1382;52.142;11.618;2022-10-16T02:59:37;5.67;;;2.60;;
2748;SDS011;1382;52.142;11.618;2022-10-16T03:02:05;3.63;;;2.30;;
2748;SDS011;1382;52.142;11.618;2022-10-16T03:04:32;6.10;;;2.77;;
2748;SDS011;1382;52.142;11.618;2022-10-16T03:06:58;2.97;;;2.17;;
2748;SDS011;1382;52.142;11.618;2022-10-16T03:09:25;3.13;;;2.70;;
2748;SDS011;1382;52.142;11.618;2022-10-16T03:11:54;4.10;;;2.30;;
2748;SDS011;1382;52.142;11.618;2022-10-16T03:14:21;3.00;;;2.03;;
2748;SDS011;1382;52.142;11.618;2022-10-16T03:16:48;2.60;;;2.00;;
2748;SDS011;1382;52.142;11.618;2022-10-16T03:19:17;2.43;;;2.00;;
2748;SDS011;1382;52.142;11.618;2022-10-16T03:21:44;3.00;;;2.13;;
2748;SDS011;1382;52.142;11.618;2022-10-16T03:24:11;2.13;;;1.90;;
2748;SDS011;1382;52.142;11.618;2022-10-16T03:26:37;2.90;;;2.40;;
2748;SDS011;1382;52.142;11.618;2022-10-16T03:29:04;4.00;;;2.50;;
2748;SDS011;1382;52.142;11.618;2022-10-16T03:31:31;2.53;;;2.20;;
2748;SDS011;1382;52.142;11.618;2022-10-16T03:33:58;3.10;;;2.43;;
2748;SDS011;1382;52.142;11.618;2022-10-16T03:36:26;3.40;;;2.97;;
2748;SDS011;1382;52.142;11.618;2022-10-16T03:38:53;4.13;;;2.67;;
2748;SDS011;1382;52.142;11.618;2022-10-16T03:41:20;3.10;;;2.20;;
2748;SDS011;1382;52.142;11.618;2022-10-16T03:43:47;3.60;;;2.60;;
2748;SDS011;1382;52.142;11.618;2022-10-16T03:46:13;3.83;;;2.40;;
2748;SDS011;1382;52.142;11.618;2022-10-16T03:48:40;3.13;;;2.43;;
2748;SDS011;1382;52.142;11.618;2022-10-16T03:51:07;3.67;;;2.70;;
2748;SDS011;1382;52.142;11.618;2022-10-16T03:53:35;3.70;;;2.53;;
2748;SDS011;1382;52.142;11.618;2022-10-16T03:56:02;2.77;;;2.40;;
2748;SDS011;1382;52.142;11.618;2022-10-16T03:58:29;3.73;;;3.00;;
2748;SDS011;1382;52.142;11.618;2022-10-16T04:00:55;2.40;;;2.00;;
2748;SDS011;1382;52.142;11.618;2022-10-16T04:03:22;4.70;;;2.70;;
2748;SDS011;1382;52.142;11.618;2022-10-16T04:05:49;8.53;;;3.03;;
2748;SDS011;1382;52.142;11.618;2022-10-16T04:08:16;3.90;;;2.67;;
2748;SDS011;1382;52.142;11.618;2022-10-16T04:10:44;3.07;;;2.77;;
2748;SDS011;1382;52.142;11.618;2022-10-16T04:13:11;3.00;;;2.70;;
2748;SDS011;1382;52.142;11.618;2022-10-16T04:15:38;2.33;;;1.97;;
2748;SDS011;1382;52.142;11.618;2022-10-16T04:18:05;4.73;;;2.37;;
2748;SDS011;1382;52.142;11.618;2022-10-16T04:20:32;3.00;;;1.93;;
2748;SDS011;1382;52.142;11.618;2022-10-16T04:23:00;3.10;;;1.80;;
2748;SDS011;1382;52.142;11.618;2022-10-16T04:25:27;5.80;;;2.47;;
2748;SDS011;1382;52.142;11.618;2022-10-16T04:27:55;3.70;;;2.77;;
2748;SDS011;1382;52.142;11.618;2022-10-16T04:30:22;3.20;;;2.33;;
2748;SDS011;1382;52.142;11.618;2022-10-16T04:32:49;3.80;;;2.80;;
2748;SDS011;1382;52.142;11.618;2022-10-16T04:35:16;5.10;;;3.10;;
2748;SDS011;1382;52.142;11.618;2022-10-16T04:37:44;5.17;;;3.27;;
2748;SDS011;1382;52.142;11.618;2022-10-16T04:40:11;3.63;;;2.93;;
2748;SDS011;1382;52.142;11.618;2022-10-16T04:42:38;3.40;;;3.10;;
2748;SDS011;1382;52.142;11.618;2022-10-16T04:45:06;3.03;;;2.47;;
2748;SDS011;1382;52.142;11.618;2022-10-16T04:47:39;4.57;;;3.17;;
2748;SDS011;1382;52.142;11.618;2022-10-16T04:50:07;4.33;;;2.80;;
2748;SDS011;1382;52.142;11.618;2022-10-16T04:52:34;3.17;;;2.60;;
2748;SDS011;1382;52.142;11.618;2022-10-16T04:55:06;3.40;;;3.10;;
2748;SDS011;1382;52.142;11.618;2022-10-16T04:57:33;2.50;;;2.20;;
2748;SDS011;1382;52.142;11.618;2022-10-16T05:00:00;2.23;;;1.80;;
2748;SDS011;1382;52.142;11.618;2022-10-16T05:02:28;2.20;;;1.90;;
2748;SDS011;1382;52.142;11.618;2022-10-16T05:04:55;2.47;;;1.90;;
2748;SDS011;1382;52.142;11.618;2022-10-16T05:07:22;3.93;;;2.10;;
2748;SDS011;1382;52.142;11.618;2022-10-16T05:09:49;4.30;;;2.43;;
2748;SDS011;1382;52.142;11.618;2022-10-16T05:12:16;4.23;;;2.30;;
2748;SDS011;1382;52.142;11.618;2022-10-16T05:14:43;3.47;;;2.10;;
2748;SDS011;1382;52.142;11.618;2022-10-16T05:17:10;2.43;;;2.23;;
2748;SDS011;1382;52.142;11.618;2022-10-16T05:19:38;3.00;;;2.70;;
2748;SDS011;1382;52.142;11.618;2022-10-16T05:22:04;3.27;;;2.10;;
2748;SDS011;1382;52.142;11.618;2022-10-16T05:24:31;5.33;;;2.63;;
2748;SDS011;1382;52.142;11.618;2022-10-16T05:26:58;2.83;;;2.20;;
2748;SDS011;1382;52.142;11.618;2022-10-16T05:29:25;3.50;;;1.93;;
2748;SDS011;1382;52.142;11.618;2022-10-16T05:31:52;2.40;;;2.00;;
2748;SDS011;1382;52.142;11.618;2022-10-16T05:34:19;2.40;;;1.83;;
2748;SDS011;1382;52.142;11.618;2022-10-16T05:36:48;4.10;;;2.20;;
2748;SDS011;1382;52.142;11.618;2022-10-16T05:39:15;1.90;;;1.80;;
2748;SDS011;1382;52.142;11.618;2022-10-16T05:41:42;2.30;;;2.00;;
2748;SDS011;1382;52.142;11.618;2022-10-16T05:44:09;2.47;;;2.10;;
2748;SDS011;1382;52.142;11.618;2022-10-16T05:46:36;2.87;;;2.20;;
2748;SDS011;1382;52.142;11.618;2022-10-16T05:49:03;2.77;;;2.50;;
2748;SDS011;1382;52.142;11.618;2022-10-16T05:51:30;3.70;;;3.33;;
2748;SDS011;1382;52.142;11.618;2022-10-16T05:53:58;3.77;;;2.90;;
2748;SDS011;1382;52.142;11.618;2022-10-16T05:56:25;3.23;;;2.97;;
2748;SDS011;1382;52.142;11.618;2022-10-16T05:58:52;2.87;;;2.50;;
2748;SDS011;1382;52.142;11.618;2022-10-16T06:01:19;2.63;;;2.43;;
2748;SDS011;1382;52.142;11.618;2022-10-16T06:03:46;3.17;;;2.10;;
2748;SDS011;1382;52.142;11.618;2022-10-16T06:06:14;2.47;;;2.27;;
2748;SDS011;1382;52.142;11.618;2022-10-16T06:08:42;5.20;;;2.40;;
2748;SDS011;1382;52.142;11.618;2022-10-16T06:11:11;2.40;;;1.93;;
2748;SDS011;1382;52.142;11.618;2022-10-16T06:13:40;2.00;;;1.80;;
2748;SDS011;1382;52.142;11.618;2022-10-16T06:16:07;2.53;;;2.23;;
2748;SDS011;1382;52.142;11.618;2022-10-16T06:18:34;5.93;;;2.27;;
2748;SDS011;1382;52.142;11.618;2022-10-16T06:21:06;3.27;;;2.70;;
2748;SDS011;1382;52.142;11.618;2022-10-16T06:23:34;2.43;;;2.10;;
2748;SDS011;1382;52.142;11.618;2022-10-16T06:26:05;4.43;;;2.03;;
2748;SDS011;1382;52.142;11.618;2022-10-16T06:28:33;8.13;;;3.50;;
2748;SDS011;1382;52.142;11.618;2022-10-16T06:31:01;2.90;;;2.23;;
2748;SDS011;1382;52.142;11.618;2022-10-16T06:33:33;4.80;;;2.50;;
2748;SDS011;1382;52.142;11.618;2022-10-16T06:36:01;4.70;;;3.30;;
2748;SDS011;1382;52.142;11.618;2022-10-16T06:38:28;5.03;;;3.17;;
2748;SDS011;1382;52.142;11.618;2022-10-16T06:40:56;3.10;;;2.57;;
2748;SDS011;1382;52.142;11.618;2022-10-16T06:43:22;2.60;;;2.40;;
2748;SDS011;1382;52.142;11.618;2022-10-16T06:45:51;3.60;;;3.30;;
2748;SDS011;1382;52.142;11.618;2022-10-16T06:48:18;3.90;;;3.13;;
2748;SDS011;1382;52.142;11.618;2022-10-16T06:50:54;3.77;;;2.93;;
2748;SDS011;1382;52.142;11.618;2022-10-16T06:53:22;6.10;;;2.80;;
2748;SDS011;1382;52.142;11.618;2022-10-16T06:55:49;3.37;;;2.93;;
2748;SDS011;1382;52.142;11.618;2022-10-16T06:58:16;3.57;;;3.20;;
2748;SDS011;1382;52.142;11.618;2022-10-16T07:00:43;3.70;;;3.37;;
2748;SDS011;1382;52.142;11.618;2022-10-16T07:03:11;4.10;;;2.97;;
2748;SDS011;1382;52.142;11.618;2022-10-16T07:05:38;6.93;;;3.47;;
2748;SDS011;1382;52.142;11.618;2022-10-16T07:08:05;4.00;;;3.07;;
2748;SDS011;1382;52.142;11.618;2022-10-16T07:10:32;4.57;;;3.23;;
2748;SDS011;1382;52.142;11.618;2022-10-16T07:12:59;3.27;;;2.97;;
2748;SDS011;1382;52.142;11.618;2022-10-16T07:15:27;3.67;;;3.03;;
2748;SDS011;1382;52.142;11.618;2022-10-16T07:17:53;4.20;;;2.80;;
2748;SDS011;1382;52.142;11.618;2022-10-16T07:20:22;2.87;;;2.67;;
2748;SDS011;1382;52.142;11.618;2022-10-16T07:22:49;3.40;;;3.10;;
2748;SDS011;1382;52.142;11.618;2022-10-16T07:25:16;6.20;;;3.13;;
2748;SDS011;1382;52.142;11.618;2022-10-16T07:27:43;3.07;;;2.67;;
2748;SDS011;1382;52.142;11.618;2022-10-16T07:30:10;5.03;;;2.73;;
2748;SDS011;1382;52.142;11.618;2022-10-16T07:32:37;2.77;;;2.20;;
2748;SDS011;1382;52.142;11.618;2022-10-16T07:35:04;7.03;;;3.20;;
2748;SDS011;1382;52.142;11.618;2022-10-16T07:37:33;2.83;;;2.40;;
2748;SDS011;1382;52.142;11.618;2022-10-16T07:40:00;3.30;;;3.00;;
2748;SDS011;1382;52.142;11.618;2022-10-16T07:42:27;4.30;;;2.37;;
2748;SDS011;1382;52.142;11.618;2022-10-16T07:44:53;2.67;;;2.00;;
2748;SDS011;1382;52.142;11.618;2022-10-16T07:47:22;3.00;;;2.70;;
2748;SDS011;1382;52.142;11.618;2022-10-16T07:49:49;2.13;;;1.93;;
2748;SDS011;1382;52.142;11.618;2022-10-16T07:52:16;3.70;;;2.50;;
2748;SDS011;1382;52.142;11.618;2022-10-16T07:54:44;2.70;;;2.40;;
2748;SDS011;1382;52.142;11.618;2022-10-16T07:57:11;5.70;;;2.57;;
2748;SDS011;1382;52.142;11.618;2022-10-16T07:59:38;2.13;;;2.03;;
2748;SDS011;1382;52.142;11.618;2022-10-16T08:02:05;2.57;;;1.90;;
2748;SDS011;1382;52.142;11.618;2022-10-16T08:04:31;2.70;;;1.70;;
2748;SDS011;1382;52.142;11.618;2022-10-16T08:06:58;2.33;;;2.23;;
2748;SDS011;1382;52.142;11.618;2022-10-16T08:09:25;3.63;;;1.93;;
2748;SDS011;1382;52.142;11.618;2022-10-16T08:11:53;3.10;;;2.10;;
2748;SDS011;1382;52.142;11.618;2022-10-16T08:14:26;3.13;;;2.43;;
2748;SDS011;1382;52.142;11.618;2022-10-16T08:16:53;2.23;;;2.10;;
2748;SDS011;1382;52.142;11.618;2022-10-16T08:19:19;3.67;;;2.30;;
2748;SDS011;1382;52.142;11.618;2022-10-16T08:21:46;2.40;;;2.27;;
2748;SDS011;1382;52.142;11.618;2022-10-16T08:24:13;2.57;;;1.80;;
2748;SDS011;1382;52.142;11.618;2022-10-16T08:26:40;2.00;;;1.90;;
2748;SDS011;1382;52.142;11.618;2022-10-16T08:29:08;3.80;;;2.10;;
2748;SDS011;1382;52.142;11.618;2022-10-16T08:31:35;3.20;;;2.23;;
2748;SDS011;1382;52.142;11.618;2022-10-16T08:34:02;2.30;;;2.00;;
2748;SDS011;1382;52.142;11.618;2022-10-16T08:36:28;4.30;;;2.27;;
2748;SDS011;1382;52.142;11.618;2022-10-16T08:38:55;4.97;;;2.03;;
2748;SDS011;1382;52.142;11.618;2022-10-16T08:41:33;1.90;;;1.80;;
2748;SDS011;1382;52.142;11.618;2022-10-16T08:44:32;3.90;;;1.73;;
2748;SDS011;1382;52.142;11.618;2022-10-16T08:47:12;1.20;;;1.10;;
2748;SDS011;1382;52.142;11.618;2022-10-16T08:49:47;3.70;;;1.80;;
2748;SDS011;1382;52.142;11.618;2022-10-16T08:52:22;1.30;;;1.20;;
2748;SDS011;1382;52.142;11.618;2022-10-16T08:54:50;4.00;;;1.23;;
2748;SDS011;1382;52.142;11.618;2022-10-16T08:57:20;4.30;;;1.13;;
2748;SDS011;1382;52.142;11.618;2022-10-16T08:59:51;2.03;;;1.40;;
2748;SDS011;1382;52.142;11.618;2022-10-16T09:02:24;1.40;;;1.30;;
2748;SDS011;1382;52.142;11.618;2022-10-16T09:04:59;2.80;;;1.30;;
2748;SDS011;1382;52.142;11.618;2022-10-16T09:07:46;1.40;;;1.30;;
2748;SDS011;1382;52.142;11.618;2022-10-16T09:10:26;5.80;;;1.80;;
2748;SDS011;1382;52.142;11.618;2022-10-16T09:13:09;2.23;;;1.40;;
2748;SDS011;1382;52.142;11.618;2022-10-16T09:15:46;1.00;;;0.90;;
2748;SDS011;1382;52.142;11.618;2022-10-16T09:18:19;1.97;;;0.93;;
2748;SDS011;1382;52.142;11.618;2022-10-16T09:20:58;2.90;;;1.10;;
2748;SDS011;1382;52.142;11.618;2022-10-16T09:23:30;2.30;;;1.00;;
2748;SDS011;1382;52.142;11.618;2022-10-16T09:26:00;1.10;;;1.00;;
2748;SDS011;1382;52.142;11.618;2022-10-16T09:28:28;1.20;;;1.10;;
2748;SDS011;1382;52.142;11.618;2022-10-16T09:30:57;2.50;;;1.23;;
2748;SDS011;1382;52.142;11.618;2022-10-16T09:33:24;0.90;;;0.90;;
2748;SDS011;1382;52.142;11.618;2022-10-16T09:35:56;2.07;;;0.80;;
2748;SDS011;1382;52.142;11.618;2022-10-16T09:38:24;1.70;;;1.30;;
2748;SDS011;1382;52.142;11.618;2022-10-16T09:40:53;1.00;;;0.90;;
2748;SDS011;1382;52.142;11.618;2022-10-16T09:43:28;1.87;;;1.30;;
2748;SDS011;1382;52.142;11.618;2022-10-16T09:46:02;1.20;;;0.97;;
2748;SDS011;1382;52.142;11.618;2022-10-16T09:48:31;1.67;;;1.10;;
2748;SDS011;1382;52.142;11.618;2022-10-16T09:51:04;1.27;;;1.00;;
2748;SDS011;1382;52.142;11.618;2022-10-16T09:53:37;1.10;;;1.00;;
2748;SDS011;1382;52.142;11.618;2022-10-16T09:56:06;2.87;;;1.17;;
2748;SDS011;1382;52.142;11.618;2022-10-16T09:58:38;1.73;;;1.00;;
2748;SDS011;1382;52.142;11.618;2022-10-16T10:01:11;2.30;;;0.97;;
2748;SDS011;1382;52.142;11.618;2022-10-16T10:03:40;1.77;;;0.77;;
2748;SDS011;1382;52.142;11.618;2022-10-16T10:06:16;3.17;;;0.93;;
2748;SDS011;1382;52.142;11.618;2022-10-16T10:08:55;1.37;;;0.97;;
2748;SDS011;1382;52.142;11.618;2022-10-16T10:11:36;0.87;;;0.87;;
2748;SDS011;1382;52.142;11.618;2022-10-16T10:14:04;1.30;;;1.13;;
2748;SDS011;1382;52.142;11.618;2022-10-16T10:16:33;1.07;;;0.70;;
2748;SDS011;1382;52.142;11.618;2022-10-16T10:19:01;1.80;;;0.70;;
2748;SDS011;1382;52.142;11.618;2022-10-16T10:21:27;0.70;;;0.70;;
2748;SDS011;1382;52.142;11.618;2022-10-16T10:23:55;2.50;;;0.80;;
2748;SDS011;1382;52.142;11.618;2022-10-16T10:26:22;1.23;;;1.10;;
2748;SDS011;1382;52.142;11.618;2022-10-16T10:28:54;1.37;;;0.63;;
2748;SDS011;1382;52.142;11.618;2022-10-16T10:31:29;1.43;;;1.00;;
2748;SDS011;1382;52.142;11.618;2022-10-16T10:34:04;1.63;;;0.90;;
2748;SDS011;1382;52.142;11.618;2022-10-16T10:36:44;2.80;;;0.80;;
2748;SDS011;1382;52.142;11.618;2022-10-16T10:39:20;0.70;;;0.70;;
2748;SDS011;1382;52.142;11.618;2022-10-16T10:41:57;2.60;;;1.03;;
2748;SDS011;1382;52.142;11.618;2022-10-16T10:44:52;2.23;;;0.80;;
2748;SDS011;1382;52.142;11.618;2022-10-16T10:47:32;0.90;;;0.70;;
2748;SDS011;1382;52.142;11.618;2022-10-16T10:50:12;0.90;;;0.80;;
2748;SDS011;1382;52.142;11.618;2022-10-16T10:52:49;1.73;;;1.00;;
2748;SDS011;1382;52.142;11.618;2022-10-16T10:55:26;2.50;;;0.80;;
2748;SDS011;1382;52.142;11.618;2022-10-16T10:58:03;1.00;;;0.80;;
2748;SDS011;1382;52.142;11.618;2022-10-16T11:01:01;1.67;;;1.23;;
2748;SDS011;1382;52.142;11.618;2022-10-16T11:03:39;1.63;;;0.90;;
2748;SDS011;1382;52.142;11.618;2022-10-16T11:06:23;0.80;;;0.77;;
2748;SDS011;1382;52.142;11.618;2022-10-16T11:08:55;1.47;;;0.67;;
2748;SDS011;1382;52.142;11.618;2022-10-16T11:11:29;1.47;;;0.90;;
2748;SDS011;1382;52.142;11.618;2022-10-16T11:14:02;1.10;;;0.67;;
2748;SDS011;1382;52.142;11.618;2022-10-16T11:16:35;1.00;;;0.67;;
2748;SDS011;1382;52.142;11.618;2022-10-16T11:19:11;0.60;;;0.60;;
2748;SDS011;1382;52.142;11.618;2022-10-16T11:21:43;1.70;;;0.77;;
2748;SDS011;1382;52.142;11.618;2022-10-16T11:24:15;0.97;;;0.90;;
2748;SDS011;1382;52.142;11.618;2022-10-16T11:26:48;0.80;;;0.73;;
2748;SDS011;1382;52.142;11.618;2022-10-16T11:29:19;1.37;;;0.90;;
2748;SDS011;1382;52.142;11.618;2022-10-16T11:31:52;1.00;;;0.80;;
2748;SDS011;1382;52.142;11.618;2022-10-16T11:34:26;0.83;;;0.70;;
2748;SDS011;1382;52.142;11.618;2022-10-16T11:37:04;0.90;;;0.50;;
2748;SDS011;1382;52.142;11.618;2022-10-16T11:39:35;1.77;;;0.80;;
2748;SDS011;1382;52.142;11.618;2022-10-16T11:42:07;0.97;;;0.80;;
2748;SDS011;1382;52.142;11.618;2022-10-16T11:44:48;2.57;;;0.90;;
2748;SDS011;1382;52.142;11.618;2022-10-16T11:47:26;1.83;;;0.70;;
2748;SDS011;1382;52.142;11.618;2022-10-16T11:50:20;1.23;;;0.77;;
2748;SDS011;1382;52.142;11.618;2022-10-16T11:52:52;0.83;;;0.80;;
2748;SDS011;1382;52.142;11.618;2022-10-16T11:55:23;2.00;;;0.90;;
2748;SDS011;1382;52.142;11.618;2022-10-16T11:57:57;2.10;;;1.00;;
2748;SDS011;1382;52.142;11.618;2022-10-16T12:00:28;1.10;;;0.70;;
2748;SDS011;1382;52.142;11.618;2022-10-16T12:03:00;2.07;;;1.00;;
2748;SDS011;1382;52.142;11.618;2022-10-16T12:05:39;2.30;;;0.63;;
2748;SDS011;1382;52.142;11.618;2022-10-16T12:08:18;0.70;;;0.60;;
2748;SDS011;1382;52.142;11.618;2022-10-16T12:10:46;1.87;;;1.00;;
2748;SDS011;1382;52.142;11.618;2022-10-16T12:13:27;1.33;;;0.60;;
2748;SDS011;1382;52.142;11.618;2022-10-16T12:16:05;1.87;;;0.60;;
2748;SDS011;1382;52.142;11.618;2022-10-16T12:18:45;1.13;;;0.70;;
2748;SDS011;1382;52.142;11.618;2022-10-16T12:21:14;1.20;;;0.70;;
2748;SDS011;1382;52.142;11.618;2022-10-16T12:23:46;1.53;;;0.63;;
2748;SDS011;1382;52.142;11.618;2022-10-16T12:26:22;1.33;;;0.70;;
2748;SDS011;1382;52.142;11.618;2022-10-16T12:28:50;3.17;;;0.93;;
2748;SDS011;1382;52.142;11.618;2022-10-16T12:31:18;4.57;;;0.53;;
2748;SDS011;1382;52.142;11.618;2022-10-16T12:33:52;2.50;;;0.80;;
2748;SDS011;1382;52.142;11.618;2022-10-16T12:36:28;1.20;;;0.80;;
2748;SDS011;1382;52.142;11.618;2022-10-16T12:38:57;1.50;;;0.40;;
2748;SDS011;1382;52.142;11.618;2022-10-16T12:41:26;1.10;;;0.50;;
2748;SDS011;1382;52.142;11.618;2022-10-16T12:43:55;0.87;;;0.43;;
2748;SDS011;1382;52.142;11.618;2022-10-16T12:46:36;4.43;;;1.10;;
2748;SDS011;1382;52.142;11.618;2022-10-16T12:49:06;1.33;;;0.57;;
2748;SDS011;1382;52.142;11.618;2022-10-16T12:51:56;1.40;;;0.60;;
2748;SDS011;1382;52.142;11.618;2022-10-16T12:54:25;4.17;;;1.10;;
2748;SDS011;1382;52.142;11.618;2022-10-16T12:57:04;1.53;;;0.50;;
2748;SDS011;1382;52.142;11.618;2022-10-16T12:59:47;1.00;;;0.70;;
2748;SDS011;1382;52.142;11.618;2022-10-16T13:02:32;1.87;;;0.70;;
2748;SDS011;1382;52.142;11.618;2022-10-16T13:05:25;1.10;;;0.60;;
2748;SDS011;1382;52.142;11.618;2022-10-16T13:08:03;1.70;;;0.80;;
2748;SDS011;1382;52.142;11.618;2022-10-16T13:10:40;1.10;;;0.70;;
2748;SDS011;1382;52.142;11.618;2022-10-16T13:13:21;1.33;;;0.77;;
2748;SDS011;1382;52.142;11.618;2022-10-16T13:16:05;2.40;;;0.70;;
2748;SDS011;1382;52.142;11.618;2022-10-16T13:18:42;0.90;;;0.60;;
2748;SDS011;1382;52.142;11.618;2022-10-16T13:21:25;0.80;;;0.70;;
2748;SDS011;1382;52.142;11.618;2022-10-16T13:24:05;0.90;;;0.53;;
2748;SDS011;1382;52.142;11.618;2022-10-16T13:26:44;1.23;;;0.80;;
2748;SDS011;1382;52.142;11.618;2022-10-16T13:29:18;1.10;;;0.60;;
2748;SDS011;1382;52.142;11.618;2022-10-16T13:31:46;0.57;;;0.43;;
2748;SDS011;1382;52.142;11.618;2022-10-16T13:34:14;3.07;;;0.90;;
2748;SDS011;1382;52.142;11.618;2022-10-16T13:36:45;0.80;;;0.50;;
2748;SDS011;1382;52.142;11.618;2022-10-16T13:39:15;1.53;;;0.70;;
2748;SDS011;1382;52.142;11.618;2022-10-16T13:41:57;5.20;;;0.60;;
2748;SDS011;1382;52.142;11.618;2022-10-16T13:44:35;0.80;;;0.50;;
2748;SDS011;1382;52.142;11.618;2022-10-16T13:47:05;1.13;;;0.60;;
2748;SDS011;1382;52.142;11.618;2022-10-16T13:49:40;0.50;;;0.40;;
2748;SDS011;1382;52.142;11.618;2022-10-16T13:52:15;3.47;;;0.50;;
2748;SDS011;1382;52.142;11.618;2022-10-16T13:54:45;0.77;;;0.60;;
2748;SDS011;1382;52.142;11.618;2022-10-16T13:57:12;1.13;;;0.50;;
2748;SDS011;1382;52.142;11.618;2022-10-16T13:59:52;0.80;;;0.50;;
2748;SDS011;1382;52.142;11.618;2022-10-16T14:02:21;1.67;;;0.50;;
2748;SDS011;1382;52.142;11.618;2022-10-16T14:04:52;0.60;;;0.50;;
2748;SDS011;1382;52.142;11.618;2022-10-16T14:07:22;1.00;;;0.53;;
2748;SDS011;1382;52.142;11.618;2022-10-16T14:09:52;0.60;;;0.40;;
2748;SDS011;1382;52.142;11.618;2022-10-16T14:12:20;0.73;;;0.43;;
2748;SDS011;1382;52.142;11.618;2022-10-16T14:14:53;3.47;;;0.50;;
2748;SDS011;1382;52.142;11.618;2022-10-16T14:17:22;5.17;;;0.70;;
2748;SDS011;1382;52.142;11.618;2022-10-16T14:19:52;0.60;;;0.40;;
2748;SDS011;1382;52.142;11.618;2022-10-16T14:22:30;2.50;;;0.70;;
2748;SDS011;1382;52.142;11.618;2022-10-16T14:25:18;1.53;;;0.50;;
2748;SDS011;1382;52.142;11.618;2022-10-16T14:28:01;2.17;;;0.67;;
2748;SDS011;1382;52.142;11.618;2022-10-16T14:30:33;1.67;;;0.60;;
2748;SDS011;1382;52.142;11.618;2022-10-16T14:33:04;1.03;;;0.60;;
2748;SDS011;1382;52.142;11.618;2022-10-16T14:36:01;2.20;;;0.60;;
2748;SDS011;1382;52.142;11.618;2022-10-16T14:38:30;1.23;;;0.60;;
2748;SDS011;1382;52.142;11.618;2022-10-16T14:40:59;0.80;;;0.50;;
2748;SDS011;1382;52.142;11.618;2022-10-16T14:43:30;1.40;;;0.60;;
2748;SDS011;1382;52.142;11.618;2022-10-16T14:45:59;0.80;;;0.60;;
2748;SDS011;1382;52.142;11.618;2022-10-16T14:48:28;1.33;;;0.50;;
2748;SDS011;1382;52.142;11.618;2022-10-16T14:50:56;1.43;;;0.80;;
2748;SDS011;1382;52.142;11.618;2022-10-16T14:53:23;4.40;;;0.83;;
2748;SDS011;1382;52.142;11.618;2022-10-16T14:55:51;0.60;;;0.60;;
2748;SDS011;1382;52.142;11.618;2022-10-16T14:58:20;1.70;;;0.50;;
2748;SDS011;1382;52.142;11.618;2022-10-16T15:00:48;2.80;;;0.90;;
2748;SDS011;1382;52.142;11.618;2022-10-16T15:03:15;2.43;;;0.60;;
2748;SDS011;1382;52.142;11.618;2022-10-16T15:05:45;1.70;;;0.70;;
2748;SDS011;1382;52.142;11.618;2022-10-16T15:08:12;0.70;;;0.50;;
2748;SDS011;1382;52.142;11.618;2022-10-16T15:10:40;4.77;;;0.73;;
2748;SDS011;1382;52.142;11.618;2022-10-16T15:13:11;0.70;;;0.43;;
2748;SDS011;1382;52.142;11.618;2022-10-16T15:15:41;2.47;;;0.70;;
2748;SDS011;1382;52.142;11.618;2022-10-16T15:18:09;8.07;;;1.10;;
2748;SDS011;1382;52.142;11.618;2022-10-16T15:20:37;1.30;;;0.50;;
2748;SDS011;1382;52.142;11.618;2022-10-16T15:23:05;1.03;;;0.53;;